createdAt,value
2022-11-06T00:01:15.405Z,33.20
2022-11-06T00:03:45.015Z,32.90
2022-11-06T00:06:35.191Z,44.70
2022-11-06T00:09:09.752Z,37.30
2022-11-06T00:11:39.687Z,41.60
2022-11-06T00:14:08.757Z,37.60
2022-11-06T00:16:39.407Z,36.30
2022-11-06T00:19:08.656Z,34.00
2022-11-06T00:21:37.084Z,37.70
2022-11-06T00:24:07.432Z,51.30
2022-11-06T00:26:36.448Z,35.30
2022-11-06T00:29:06.050Z,32.30
2022-11-06T00:31:37.814Z,31.10
2022-11-06T00:34:07.884Z,27.70
2022-11-06T00:36:36.540Z,26.70
2022-11-06T00:39:04.845Z,28.30
2022-11-06T00:41:33.445Z,25.90
2022-11-06T00:44:03.240Z,31.80
2022-11-06T00:46:32.031Z,33.40
2022-11-06T00:49:00.410Z,43.70
2022-11-06T00:51:36.082Z,49.60
2022-11-06T00:54:06.834Z,33.90
2022-11-06T00:56:35.475Z,32.40
2022-11-06T00:59:07.001Z,27.60
2022-11-06T01:01:44.519Z,31.10
2022-11-06T01:04:21.498Z,29.50
2022-11-06T01:06:53.429Z,25.70
2022-11-06T01:09:25.539Z,27.00
2022-11-06T01:12:12.753Z,26.00
2022-11-06T01:14:43.750Z,29.50
2022-11-06T01:17:13.615Z,28.70
2022-11-06T01:19:42.141Z,30.70
2022-11-06T01:22:10.786Z,33.70
2022-11-06T01:24:39.349Z,29.50
2022-11-06T01:29:57.158Z,37.00
2022-11-06T01:32:25.620Z,28.40
2022-11-06T01:34:54.022Z,28.10
2022-11-06T01:37:22.383Z,26.40
2022-11-06T01:39:51.120Z,33.20
2022-11-06T01:42:21.631Z,31.10
2022-11-06T01:45:21.393Z,29.80
2022-11-06T01:47:50.288Z,29.80
2022-11-06T01:50:19.991Z,33.00
2022-11-06T01:52:50.427Z,40.00
2022-11-06T01:55:30.839Z,32.80
2022-11-06T01:58:02.182Z,28.90
2022-11-06T02:00:31.446Z,28.30
2022-11-06T02:03:01.157Z,27.50
2022-11-06T02:05:29.800Z,23.30
2022-11-06T02:08:00.199Z,22.90
2022-11-06T02:10:29.909Z,25.00
2022-11-06T02:13:06.866Z,26.40
2022-11-06T02:16:13.718Z,26.60
2022-11-06T02:18:55.374Z,36.50
2022-11-06T02:21:42.150Z,28.20
2022-11-06T02:24:41.658Z,31.30
2022-11-06T02:27:14.305Z,28.00
2022-11-06T02:29:51.805Z,27.60
2022-11-06T02:32:40.291Z,29.70
2022-11-06T02:35:27.031Z,24.00
2022-11-06T02:38:00.549Z,28.20
2022-11-06T02:40:33.837Z,29.40
2022-11-06T02:43:06.836Z,23.90
2022-11-06T02:45:58.689Z,33.20
2022-11-06T02:48:33.409Z,24.90
2022-11-06T02:51:05.280Z,25.30
2022-11-06T02:53:34.194Z,25.70
2022-11-06T02:56:20.562Z,25.70
2022-11-06T02:58:54.884Z,24.70
2022-11-06T03:01:47.982Z,30.80
2022-11-06T03:04:27.193Z,28.30
2022-11-06T03:07:12.473Z,27.60
2022-11-06T03:09:40.806Z,36.90
2022-11-06T03:12:38.361Z,23.90
2022-11-06T03:15:21.055Z,24.00
2022-11-06T03:18:10.964Z,24.60
2022-11-06T03:21:01.949Z,23.70
2022-11-06T03:23:49.513Z,29.00
2022-11-06T03:26:31.325Z,24.00
2022-11-06T03:29:08.691Z,28.20
2022-11-06T03:31:47.937Z,23.40
2022-11-06T03:34:26.049Z,24.50
2022-11-06T03:37:09.856Z,19.80
2022-11-06T03:39:43.245Z,23.10
2022-11-06T03:42:18.578Z,28.00
2022-11-06T03:44:52.910Z,27.50
2022-11-06T03:47:23.920Z,29.30
2022-11-06T03:50:00.989Z,21.60
2022-11-06T03:52:39.545Z,22.80
2022-11-06T03:55:11.861Z,23.90
2022-11-06T03:57:47.337Z,23.60
2022-11-06T04:00:17.574Z,23.00
2022-11-06T04:02:51.176Z,25.10
2022-11-06T04:05:25.175Z,25.50
2022-11-06T04:11:06.363Z,25.90
2022-11-06T04:13:56.511Z,23.40
2022-11-06T04:16:27.701Z,23.70
2022-11-06T04:18:56.086Z,28.40
2022-11-06T04:21:45.246Z,24.60
2022-11-06T04:24:53.905Z,26.30
2022-11-06T04:27:34.207Z,23.70
2022-11-06T04:30:07.551Z,23.50
2022-11-06T04:32:49.020Z,22.90
2022-11-06T04:35:25.211Z,21.00
2022-11-06T04:38:23.658Z,20.20
2022-11-06T04:41:12.641Z,21.70
2022-11-06T04:43:59.644Z,33.70
2022-11-06T04:46:33.935Z,14.10
2022-11-06T04:49:05.435Z,14.30
2022-11-06T04:51:38.366Z,15.30
2022-11-06T04:54:10.360Z,12.90
2022-11-06T04:56:44.738Z,12.60
2022-11-06T04:59:17.984Z,15.80
2022-11-06T05:01:47.230Z,12.60
2022-11-06T05:04:15.830Z,11.60
2022-11-06T05:06:44.133Z,44.30
2022-11-06T05:09:12.423Z,19.40
2022-11-06T05:11:40.738Z,12.70
2022-11-06T05:14:09.391Z,19.00
2022-11-06T05:16:37.816Z,11.70
2022-11-06T05:19:06.441Z,17.40
2022-11-06T05:21:53.926Z,16.40
2022-11-06T05:24:22.228Z,16.10
2022-11-06T05:26:54.606Z,15.90
2022-11-06T05:29:26.576Z,13.10
2022-11-06T05:32:31.126Z,9.50
2022-11-06T05:37:28.334Z,10.50
2022-11-06T05:39:56.727Z,12.10
2022-11-06T05:42:25.021Z,12.70
2022-11-06T05:44:53.315Z,12.20
2022-11-06T05:47:21.570Z,10.90
2022-11-06T05:49:49.914Z,9.30
2022-11-06T05:52:18.219Z,12.30
2022-11-06T05:54:46.604Z,11.10
2022-11-06T05:57:14.869Z,14.10
2022-11-06T05:59:43.556Z,10.30
2022-11-06T06:02:12.023Z,12.20
2022-11-06T06:04:40.591Z,10.40
2022-11-06T06:07:09.572Z,12.70
2022-11-06T06:09:37.860Z,12.10
2022-11-06T06:12:06.759Z,13.70
2022-11-06T06:14:34.991Z,11.80
2022-11-06T06:17:03.459Z,12.00
2022-11-06T06:19:31.775Z,12.00
2022-11-06T06:22:00.111Z,10.30
2022-11-06T06:24:28.398Z,12.60
2022-11-06T06:26:56.783Z,11.20
2022-11-06T06:29:25.048Z,11.50
2022-11-06T06:32:08.499Z,11.60
2022-11-06T06:34:36.925Z,12.60
2022-11-06T06:37:05.193Z,10.70
2022-11-06T06:39:33.482Z,11.40
2022-11-06T06:42:01.759Z,14.00
2022-11-06T06:44:30.404Z,16.30
2022-11-06T06:46:58.763Z,13.10
2022-11-06T06:49:27.402Z,14.80
2022-11-06T06:51:55.903Z,12.10
2022-11-06T06:54:24.239Z,14.80
2022-11-06T06:56:52.619Z,14.00
2022-11-06T06:59:20.914Z,14.80
2022-11-06T07:01:49.339Z,14.20
2022-11-06T07:04:17.947Z,16.10
2022-11-06T07:06:46.211Z,15.90
2022-11-06T07:09:14.567Z,16.30
2022-11-06T07:11:42.899Z,15.60
2022-11-06T07:14:11.515Z,17.60
2022-11-06T07:16:39.842Z,17.10
2022-11-06T07:19:08.151Z,17.50
2022-11-06T07:21:36.501Z,18.20
2022-11-06T07:24:05.148Z,14.80
2022-11-06T07:26:33.662Z,15.50
2022-11-06T07:29:02.086Z,13.00
2022-11-06T07:31:31.868Z,14.50
2022-11-06T07:34:00.238Z,13.30
2022-11-06T07:36:28.729Z,12.30
2022-11-06T07:38:58.356Z,13.20
2022-11-06T07:41:26.663Z,13.70
2022-11-06T07:43:55.414Z,11.80
2022-11-06T07:46:23.999Z,20.10
2022-11-06T07:48:52.952Z,13.80
2022-11-06T07:51:21.483Z,13.70
2022-11-06T07:53:50.001Z,12.00
2022-11-06T07:56:19.296Z,11.30
2022-11-06T07:58:47.636Z,11.80
2022-11-06T08:01:18.802Z,13.20
2022-11-06T08:03:47.752Z,13.00
2022-11-06T08:06:16.441Z,10.50
2022-11-06T08:08:44.903Z,10.20
2022-11-06T08:11:14.270Z,11.20
2022-11-06T08:13:42.905Z,13.70
2022-11-06T08:16:14.397Z,10.30
2022-11-06T08:18:43.569Z,23.90
2022-11-06T08:21:12.117Z,10.50
2022-11-06T08:23:40.591Z,9.70
2022-11-06T08:26:09.466Z,19.80
2022-11-06T08:28:38.085Z,13.10
2022-11-06T08:31:08.733Z,20.30
2022-11-06T08:33:39.853Z,21.20
2022-11-06T08:36:10.511Z,22.70
2022-11-06T08:38:39.178Z,14.40
2022-11-06T08:41:12.797Z,14.10
2022-11-06T08:43:41.575Z,16.00
2022-11-06T08:46:11.121Z,15.20
2022-11-06T08:48:39.692Z,15.30
2022-11-06T08:51:08.235Z,16.70
2022-11-06T08:53:38.076Z,14.10
2022-11-06T08:56:07.123Z,13.40
2022-11-06T08:58:36.087Z,14.80
2022-11-06T09:01:04.638Z,16.00
2022-11-06T09:03:33.297Z,15.70
2022-11-06T09:06:01.799Z,16.90
2022-11-06T09:08:30.397Z,17.30
2022-11-06T09:10:59.550Z,18.70
2022-11-06T09:13:28.200Z,18.40
2022-11-06T09:15:56.647Z,17.70
2022-11-06T09:18:25.133Z,18.70
2022-11-06T09:20:57.490Z,16.70
2022-11-06T09:23:25.947Z,19.20
2022-11-06T09:25:54.670Z,20.20
2022-11-06T09:28:23.202Z,21.60
2022-11-06T09:30:51.818Z,24.00
2022-11-06T09:33:21.731Z,23.00
2022-11-06T09:35:50.656Z,25.30
2022-11-06T09:38:19.501Z,25.60
2022-11-06T09:40:58.387Z,27.40
2022-11-06T09:46:46.213Z,20.60
2022-11-06T09:49:32.269Z,23.40
2022-11-06T09:52:17.666Z,23.20
2022-11-06T09:54:56.417Z,26.80
2022-11-06T09:57:56.921Z,28.30
2022-11-06T10:00:26.237Z,27.00
2022-11-06T10:03:16.272Z,28.20
2022-11-06T10:05:47.104Z,17.80
2022-11-06T10:08:27.335Z,23.60
2022-11-06T10:10:56.174Z,17.60
2022-11-06T10:13:33.916Z,19.10
2022-11-06T10:16:11.485Z,12.30
2022-11-06T10:18:46.264Z,16.20
2022-11-06T10:21:20.715Z,15.00
2022-11-06T10:23:55.043Z,15.70
2022-11-06T10:26:42.263Z,10.30
2022-11-06T10:29:36.117Z,15.10
2022-11-06T10:32:24.869Z,12.20
2022-11-06T10:35:19.585Z,10.30
2022-11-06T10:37:58.209Z,10.10
2022-11-06T10:40:33.553Z,9.40
2022-11-06T10:43:07.618Z,12.20
2022-11-06T10:45:39.685Z,13.10
2022-11-06T10:48:27.377Z,10.50
2022-11-06T10:51:20.272Z,12.30
2022-11-06T10:54:09.734Z,10.50
2022-11-06T10:56:53.090Z,12.10
2022-11-06T10:59:22.158Z,12.10
2022-11-06T11:01:51.209Z,13.30
2022-11-06T11:04:20.158Z,10.60
2022-11-06T11:06:48.750Z,13.50
2022-11-06T11:09:34.646Z,11.40
2022-11-06T11:12:03.281Z,11.70
2022-11-06T11:14:32.964Z,11.70
2022-11-06T11:17:08.153Z,17.20
2022-11-06T11:19:46.355Z,18.30
2022-11-06T11:22:16.871Z,9.80
2022-11-06T11:25:03.663Z,12.60
2022-11-06T11:27:45.895Z,15.00
2022-11-06T11:30:24.807Z,9.80
2022-11-06T11:33:14.063Z,12.80
2022-11-06T11:35:50.197Z,14.50
2022-11-06T11:38:22.253Z,13.90
2022-11-06T11:40:51.912Z,12.00
2022-11-06T11:43:26.488Z,13.90
2022-11-06T11:46:10.307Z,9.20
2022-11-06T11:48:48.681Z,11.20
2022-11-06T11:51:28.985Z,11.50
2022-11-06T11:54:13.795Z,10.10
2022-11-06T11:57:05.631Z,9.80
2022-11-06T11:59:57.933Z,9.60
2022-11-06T12:02:29.977Z,9.50
2022-11-06T12:05:09.995Z,9.20
2022-11-06T12:07:49.517Z,10.80
2022-11-06T12:10:44.644Z,8.60
2022-11-06T12:13:14.426Z,8.00
2022-11-06T12:15:46.062Z,11.40
2022-11-06T12:18:35.581Z,10.70
2022-11-06T12:21:07.500Z,16.10
2022-11-06T12:24:03.554Z,11.70
2022-11-06T12:26:54.682Z,11.70
2022-11-06T12:29:37.737Z,15.40
2022-11-06T12:32:24.235Z,12.50
2022-11-06T12:35:03.936Z,11.80
2022-11-06T12:37:53.748Z,11.30
2022-11-06T12:40:48.003Z,12.70
2022-11-06T12:43:27.509Z,11.50
2022-11-06T12:46:08.119Z,13.80
2022-11-06T12:49:07.692Z,10.80
2022-11-06T12:52:09.863Z,9.90
2022-11-06T12:55:02.670Z,9.70
2022-11-06T12:57:43.802Z,17.40
2022-11-06T13:00:16.311Z,15.40
2022-11-06T13:02:57.771Z,10.50
2022-11-06T13:05:41.359Z,10.20
2022-11-06T13:24:13.706Z,9.10
2022-11-06T13:26:55.156Z,9.10
2022-11-06T13:29:26.107Z,5.40
2022-11-06T13:31:59.481Z,10.90
2022-11-06T13:34:35.240Z,12.20
2022-11-06T13:37:12.057Z,13.10
2022-11-06T13:39:50.730Z,11.80
2022-11-06T13:42:41.944Z,16.20
2022-11-06T13:45:16.997Z,12.70
2022-11-06T13:48:28.639Z,13.10
2022-11-06T13:51:14.575Z,10.30
2022-11-06T13:53:53.027Z,11.70
2022-11-06T13:56:43.938Z,9.20
2022-11-06T13:59:35.292Z,9.50
2022-11-06T14:02:38.112Z,9.40
2022-11-06T14:05:46.663Z,9.90
2022-11-06T14:08:32.822Z,12.50
2022-11-06T14:11:06.017Z,13.60
2022-11-06T14:13:36.247Z,15.70
2022-11-06T14:16:14.776Z,12.50
2022-11-06T14:18:54.330Z,14.50
2022-11-06T14:21:26.699Z,9.70
2022-11-06T14:24:28.193Z,10.20
2022-11-06T14:26:58.411Z,9.50
2022-11-06T14:29:27.277Z,9.70
2022-11-06T14:32:09.860Z,11.50
2022-11-06T14:34:43.319Z,8.50
2022-11-06T14:37:18.342Z,13.20
2022-11-06T14:39:58.150Z,10.40
2022-11-06T14:42:40.245Z,10.10
2022-11-06T14:45:22.387Z,10.50
2022-11-06T14:47:57.289Z,12.50
2022-11-06T14:50:36.541Z,11.60
2022-11-06T14:53:25.944Z,12.50
2022-11-06T14:56:02.873Z,10.90
2022-11-06T14:58:36.970Z,13.40
2022-11-06T15:01:12.776Z,11.80
2022-11-06T15:03:41.371Z,17.10
2022-11-06T15:06:17.370Z,14.20
2022-11-06T15:08:46.320Z,16.60
2022-11-06T15:11:30.289Z,16.70
2022-11-06T15:14:04.566Z,14.30
2022-11-06T15:16:44.704Z,33.80
2022-11-06T15:19:28.317Z,18.10
2022-11-06T15:22:05.964Z,15.00
2022-11-06T15:25:04.902Z,12.80
2022-11-06T15:27:45.684Z,28.00
2022-11-06T15:30:18.176Z,19.60
2022-11-06T15:32:52.489Z,27.30
2022-11-06T15:35:33.783Z,30.00
2022-11-06T15:38:14.013Z,29.20
2022-11-06T15:40:44.722Z,30.50
2022-11-06T15:43:31.457Z,33.90
2022-11-06T15:46:22.941Z,40.00
2022-11-06T15:49:13.409Z,37.10
2022-11-06T15:51:52.923Z,20.10
2022-11-06T15:54:38.622Z,24.10
2022-11-06T15:57:25.591Z,27.90
2022-11-06T16:00:13.147Z,21.90
2022-11-06T16:02:52.854Z,22.10
2022-11-06T16:05:22.731Z,31.50
2022-11-06T16:07:52.439Z,27.20
2022-11-06T16:10:24.450Z,24.00
2022-11-06T16:12:55.203Z,27.90
2022-11-06T16:16:01.959Z,25.80
2022-11-06T16:18:41.370Z,30.80
2022-11-06T16:21:27.755Z,27.20
2022-11-06T16:24:05.429Z,36.30
2022-11-06T16:26:38.238Z,41.20
2022-11-06T16:29:17.025Z,43.20
2022-11-06T16:31:48.720Z,33.40
2022-11-06T16:34:22.370Z,39.10
2022-11-06T16:37:08.468Z,47.70
2022-11-06T16:39:49.707Z,35.10
2022-11-06T16:42:29.840Z,32.10
2022-11-06T16:45:21.288Z,27.80
2022-11-06T16:48:27.335Z,36.00
2022-11-06T16:51:02.854Z,34.40
2022-11-06T16:53:49.193Z,34.00
2022-11-06T16:56:24.978Z,55.30
2022-11-06T16:58:59.326Z,47.90
2022-11-06T17:01:38.240Z,41.40
2022-11-06T17:04:21.498Z,31.50
2022-11-06T17:06:53.414Z,22.50
2022-11-06T17:09:34.819Z,20.30
2022-11-06T17:12:12.000Z,18.70
2022-11-06T17:14:45.469Z,21.50
2022-11-06T17:17:26.699Z,20.90
2022-11-06T17:19:59.260Z,24.00
2022-11-06T17:22:29.774Z,21.60
2022-11-06T17:25:00.235Z,20.30
2022-11-06T17:27:29.943Z,21.10
2022-11-06T17:29:59.314Z,19.10
2022-11-06T17:32:28.983Z,22.00
2022-11-06T17:34:57.973Z,21.80
2022-11-06T17:37:27.726Z,17.30
2022-11-06T17:39:56.845Z,22.40
2022-11-06T17:42:26.857Z,27.20
2022-11-06T17:44:57.123Z,33.00
2022-11-06T17:47:27.940Z,26.10
2022-11-06T17:49:57.357Z,20.60
2022-11-06T17:52:26.697Z,22.50
2022-11-06T17:54:58.330Z,22.10
2022-11-06T17:57:29.006Z,24.50
2022-11-06T17:59:58.970Z,22.00
2022-11-06T18:02:54.991Z,25.50
2022-11-06T18:05:21.126Z,22.90
2022-11-06T18:07:51.416Z,27.10
2022-11-06T18:10:27.434Z,24.20
2022-11-06T18:13:03.693Z,25.20
2022-11-06T18:15:39.082Z,26.10
2022-11-06T18:18:11.959Z,22.80
2022-11-06T18:20:47.227Z,30.60
2022-11-06T18:23:17.921Z,28.70
2022-11-06T18:25:58.646Z,30.20
2022-11-06T18:28:28.539Z,30.00
2022-11-06T18:30:59.950Z,29.00
2022-11-06T18:33:30.948Z,27.60
2022-11-06T18:36:09.893Z,29.60
2022-11-06T18:38:41.062Z,33.20
2022-11-06T18:41:13.546Z,32.10
2022-11-06T18:43:44.776Z,33.50
2022-11-06T18:46:20.098Z,32.80
2022-11-06T18:48:50.880Z,29.10
2022-11-06T18:51:34.656Z,35.70
2022-11-06T18:54:08.052Z,31.40
2022-11-06T18:56:39.608Z,32.90
2022-11-06T18:59:20.322Z,30.90
2022-11-06T19:01:50.537Z,35.20
2022-11-06T19:04:19.991Z,29.00
2022-11-06T19:06:51.150Z,29.60
2022-11-06T19:09:20.944Z,35.10
2022-11-06T19:11:51.762Z,33.60
2022-11-06T19:14:24.265Z,35.10
2022-11-06T19:16:54.452Z,35.50
2022-11-06T19:19:25.709Z,40.70
2022-11-06T19:21:57.869Z,32.90
2022-11-06T19:24:29.394Z,35.90
2022-11-06T19:26:58.936Z,36.50
2022-11-06T19:29:28.873Z,36.10
2022-11-06T19:32:02.809Z,34.80
2022-11-06T19:34:39.159Z,31.60
2022-11-06T19:37:08.495Z,31.10
2022-11-06T19:39:38.848Z,29.40
2022-11-06T19:42:11.409Z,33.20
2022-11-06T19:44:43.627Z,32.30
2022-11-06T19:47:14.064Z,33.50
2022-11-06T19:49:43.259Z,29.30
2022-11-06T19:52:42.746Z,31.90
2022-11-06T19:55:26.580Z,30.00
2022-11-06T19:57:52.220Z,32.80
2022-11-06T20:00:23.419Z,33.00
2022-11-06T20:02:56.298Z,24.70
2022-11-06T20:05:30.179Z,147.10
2022-11-06T20:08:00.113Z,37.10
2022-11-06T20:10:30.383Z,33.30
2022-11-06T20:13:00.663Z,33.60
2022-11-06T20:15:30.952Z,32.30
2022-11-06T20:18:00.591Z,36.40
2022-11-06T20:20:35.997Z,37.70
2022-11-06T20:23:07.197Z,31.00
2022-11-06T20:25:36.929Z,33.90
2022-11-06T20:28:07.186Z,32.90
2022-11-06T20:30:36.924Z,33.60
2022-11-06T20:33:11.819Z,27.60
2022-11-06T20:35:42.682Z,31.20
2022-11-06T20:38:13.227Z,31.70
2022-11-06T20:40:46.143Z,29.80
2022-11-06T20:43:16.122Z,28.80
2022-11-06T20:45:46.031Z,32.40
2022-11-06T20:48:16.587Z,27.10
2022-11-06T20:50:58.468Z,33.60
2022-11-06T20:53:28.894Z,27.10
2022-11-06T20:56:08.047Z,28.10
2022-11-06T20:58:38.041Z,31.00
2022-11-06T21:01:12.651Z,31.10
2022-11-06T21:03:42.721Z,28.80
2022-11-06T21:06:13.631Z,28.90
2022-11-06T21:08:45.419Z,29.00
2022-11-06T21:11:18.494Z,25.20
2022-11-06T21:13:49.952Z,25.30
2022-11-06T21:16:24.841Z,26.00
2022-11-06T21:18:54.886Z,27.20
2022-11-06T21:21:27.021Z,26.70
2022-11-06T21:23:56.983Z,25.10
2022-11-06T21:26:31.236Z,30.50
2022-11-06T21:29:02.578Z,31.10
2022-11-06T21:31:32.800Z,28.70
2022-11-06T21:34:05.975Z,26.40
2022-11-06T21:36:37.336Z,24.80
2022-11-06T21:39:09.144Z,27.50
2022-11-06T21:41:38.946Z,28.10
2022-11-06T21:44:09.043Z,28.10
2022-11-06T21:46:42.524Z,22.30
2022-11-06T21:49:14.436Z,28.00
2022-11-06T21:51:43.208Z,26.90
2022-11-06T21:54:31.686Z,28.90
2022-11-06T21:57:01.343Z,28.20
2022-11-06T21:59:31.125Z,30.00
2022-11-06T22:01:59.781Z,31.30
2022-11-06T22:04:28.548Z,28.40
2022-11-06T22:06:57.164Z,31.70
2022-11-06T22:09:26.428Z,30.50
2022-11-06T22:11:55.070Z,30.80
2022-11-06T22:14:23.817Z,31.90
2022-11-06T22:16:52.723Z,28.70
2022-11-06T22:19:21.340Z,32.00
2022-11-06T22:21:49.825Z,30.30
2022-11-06T22:24:18.335Z,34.30
2022-11-06T22:26:47.107Z,31.50
2022-11-06T22:29:15.770Z,32.70
2022-11-06T22:31:44.198Z,33.50
2022-11-06T22:34:13.789Z,34.50
2022-11-06T22:36:42.454Z,37.20
2022-11-06T22:39:11.874Z,32.80
2022-11-06T22:41:41.079Z,33.70
2022-11-06T22:44:10.360Z,32.70
2022-11-06T22:46:39.230Z,28.70
2022-11-06T22:49:07.933Z,30.30
2022-11-06T22:51:36.454Z,28.40
2022-11-06T22:54:05.393Z,33.70
2022-11-06T22:56:34.001Z,42.70
2022-11-06T22:59:05.703Z,32.10
2022-11-06T23:01:40.351Z,28.90
2022-11-06T23:04:15.396Z,29.40
2022-11-06T23:06:45.610Z,34.80
2022-11-06T23:09:14.891Z,35.30
2022-11-06T23:11:46.367Z,31.00
2022-11-06T23:14:14.974Z,31.80
2022-11-06T23:16:59.379Z,42.70
2022-11-06T23:22:17.081Z,41.20
2022-11-06T23:24:46.168Z,40.70
2022-11-06T23:27:14.870Z,60.90
2022-11-06T23:29:43.411Z,37.00
2022-11-06T23:32:12.094Z,28.90
2022-11-06T23:34:40.612Z,34.90
2022-11-06T23:37:09.498Z,36.30
2022-11-06T23:39:38.277Z,47.80
2022-11-06T23:42:06.748Z,32.90
2022-11-06T23:44:54.023Z,32.80
2022-11-06T23:47:22.923Z,34.20
2022-11-06T23:49:51.447Z,31.60
2022-11-06T23:52:20.004Z,40.20
2022-11-06T23:54:48.709Z,35.90
2022-11-06T23:57:17.786Z,36.10
2022-11-06T23:59:46.349Z,36.20
